sensor_id;sensor_type;location;lat;lon;timestamp;P1;durP1;ratioP1;P2;durP2;ratioP2
53875;SDS011;39789;53.216;5.624;2023-06-24T00:01:22;15.55;;;12.27;;
53875;SDS011;39789;53.216;5.624;2023-06-24T00:03:48;27.88;;;12.10;;
53875;SDS011;39789;53.216;5.624;2023-06-24T00:06:17;18.38;;;12.70;;
53875;SDS011;39789;53.216;5.624;2023-06-24T00:08:44;17.33;;;11.48;;
53875;SDS011;39789;53.216;5.624;2023-06-24T00:11:10;14.77;;;12.23;;
53875;SDS011;39789;53.216;5.624;2023-06-24T00:13:36;18.30;;;12.98;;
53875;SDS011;39789;53.216;5.624;2023-06-24T00:16:02;30.50;;;13.57;;
53875;SDS011;39789;53.216;5.624;2023-06-24T00:18:28;16.30;;;12.82;;
53875;SDS011;39789;53.216;5.624;2023-06-24T00:20:56;14.68;;;12.23;;
53875;SDS011;39789;53.216;5.624;2023-06-24T00:23:22;16.15;;;12.07;;
53875;SDS011;39789;53.216;5.624;2023-06-24T00:25:50;16.30;;;12.88;;
53875;SDS011;39789;53.216;5.624;2023-06-24T00:28:16;20.65;;;13.95;;
53875;SDS011;39789;53.216;5.624;2023-06-24T00:30:41;17.17;;;12.57;;
53875;SDS011;39789;53.216;5.624;2023-06-24T00:33:07;15.13;;;13.05;;
53875;SDS011;39789;53.216;5.624;2023-06-24T00:35:36;14.70;;;12.23;;
53875;SDS011;39789;53.216;5.624;2023-06-24T00:38:02;16.88;;;12.52;;
53875;SDS011;39789;53.216;5.624;2023-06-24T00:40:28;18.00;;;13.52;;
53875;SDS011;39789;53.216;5.624;2023-06-24T00:42:54;15.18;;;12.50;;
53875;SDS011;39789;53.216;5.624;2023-06-24T00:45:20;14.65;;;13.10;;
53875;SDS011;39789;53.216;5.624;2023-06-24T00:47:47;15.90;;;12.57;;
53875;SDS011;39789;53.216;5.624;2023-06-24T00:50:14;17.08;;;12.52;;
53875;SDS011;39789;53.216;5.624;2023-06-24T00:52:40;16.55;;;12.82;;
53875;SDS011;39789;53.216;5.624;2023-06-24T00:55:12;15.07;;;13.25;;
53875;SDS011;39789;53.216;5.624;2023-06-24T00:57:42;18.90;;;13.02;;
53875;SDS011;39789;53.216;5.624;2023-06-24T01:00:09;18.38;;;13.57;;
53875;SDS011;39789;53.216;5.624;2023-06-24T01:02:39;17.88;;;13.38;;
53875;SDS011;39789;53.216;5.624;2023-06-24T01:05:07;15.85;;;13.65;;
53875;SDS011;39789;53.216;5.624;2023-06-24T01:07:33;17.00;;;12.57;;
53875;SDS011;39789;53.216;5.624;2023-06-24T01:10:01;17.27;;;12.68;;
53875;SDS011;39789;53.216;5.624;2023-06-24T01:12:29;17.15;;;12.32;;
53875;SDS011;39789;53.216;5.624;2023-06-24T01:14:55;14.93;;;12.43;;
53875;SDS011;39789;53.216;5.624;2023-06-24T01:17:25;15.55;;;13.30;;
53875;SDS011;39789;53.216;5.624;2023-06-24T01:20:17;19.25;;;13.25;;
53875;SDS011;39789;53.216;5.624;2023-06-24T01:28:07;15.43;;;12.75;;
53875;SDS011;39789;53.216;5.624;2023-06-24T01:33:23;15.77;;;11.88;;
53875;SDS011;39789;53.216;5.624;2023-06-24T01:35:54;16.90;;;12.45;;
53875;SDS011;39789;53.216;5.624;2023-06-24T01:38:24;15.73;;;12.20;;
53875;SDS011;39789;53.216;5.624;2023-06-24T01:40:57;17.85;;;13.40;;
53875;SDS011;39789;53.216;5.624;2023-06-24T01:43:26;14.93;;;12.32;;
53875;SDS011;39789;53.216;5.624;2023-06-24T01:45:52;14.63;;;12.27;;
53875;SDS011;39789;53.216;5.624;2023-06-24T01:48:30;23.25;;;12.63;;
53875;SDS011;39789;53.216;5.624;2023-06-24T01:51:01;14.63;;;11.43;;
53875;SDS011;39789;53.216;5.624;2023-06-24T01:53:37;25.50;;;12.63;;
53875;SDS011;39789;53.216;5.624;2023-06-24T01:56:07;15.93;;;12.90;;
53875;SDS011;39789;53.216;5.624;2023-06-24T01:58:35;18.42;;;12.73;;
53875;SDS011;39789;53.216;5.624;2023-06-24T02:01:03;21.85;;;12.98;;
53875;SDS011;39789;53.216;5.624;2023-06-24T02:03:29;16.88;;;12.27;;
53875;SDS011;39789;53.216;5.624;2023-06-24T02:05:57;17.63;;;12.05;;
53875;SDS011;39789;53.216;5.624;2023-06-24T02:08:24;15.63;;;11.23;;
53875;SDS011;39789;53.216;5.624;2023-06-24T02:10:51;18.52;;;12.13;;
53875;SDS011;39789;53.216;5.624;2023-06-24T02:13:17;16.83;;;12.75;;
53875;SDS011;39789;53.216;5.624;2023-06-24T02:15:45;16.85;;;12.00;;
53875;SDS011;39789;53.216;5.624;2023-06-24T02:18:12;13.75;;;11.90;;
53875;SDS011;39789;53.216;5.624;2023-06-24T02:20:40;13.73;;;11.20;;
53875;SDS011;39789;53.216;5.624;2023-06-24T02:23:09;13.40;;;11.15;;
53875;SDS011;39789;53.216;5.624;2023-06-24T02:25:36;14.65;;;11.80;;
53875;SDS011;39789;53.216;5.624;2023-06-24T02:28:04;15.48;;;12.13;;
53875;SDS011;39789;53.216;5.624;2023-06-24T02:30:30;18.52;;;12.50;;
53875;SDS011;39789;53.216;5.624;2023-06-24T02:32:57;16.23;;;12.75;;
53875;SDS011;39789;53.216;5.624;2023-06-24T02:35:23;14.82;;;11.27;;
53875;SDS011;39789;53.216;5.624;2023-06-24T02:37:48;14.52;;;12.05;;
53875;SDS011;39789;53.216;5.624;2023-06-24T02:40:14;18.85;;;12.60;;
53875;SDS011;39789;53.216;5.624;2023-06-24T02:42:40;16.33;;;12.30;;
53875;SDS011;39789;53.216;5.624;2023-06-24T02:45:05;18.90;;;13.30;;
53875;SDS011;39789;53.216;5.624;2023-06-24T02:47:32;13.90;;;12.02;;
53875;SDS011;39789;53.216;5.624;2023-06-24T02:49:59;17.73;;;13.43;;
53875;SDS011;39789;53.216;5.624;2023-06-24T02:52:26;20.25;;;13.82;;
53875;SDS011;39789;53.216;5.624;2023-06-24T02:54:54;14.40;;;12.07;;
53875;SDS011;39789;53.216;5.624;2023-06-24T02:57:24;17.08;;;13.07;;
53875;SDS011;39789;53.216;5.624;2023-06-24T02:59:51;18.88;;;13.68;;
53875;SDS011;39789;53.216;5.624;2023-06-24T03:02:16;20.02;;;13.63;;
53875;SDS011;39789;53.216;5.624;2023-06-24T03:04:42;16.75;;;12.80;;
53875;SDS011;39789;53.216;5.624;2023-06-24T03:07:10;16.35;;;13.07;;
53875;SDS011;39789;53.216;5.624;2023-06-24T03:09:36;16.02;;;12.10;;
53875;SDS011;39789;53.216;5.624;2023-06-24T03:12:02;20.17;;;14.07;;
53875;SDS011;39789;53.216;5.624;2023-06-24T03:14:28;16.67;;;12.82;;
53875;SDS011;39789;53.216;5.624;2023-06-24T03:16:53;18.20;;;12.50;;
53875;SDS011;39789;53.216;5.624;2023-06-24T03:19:19;15.00;;;12.75;;
53875;SDS011;39789;53.216;5.624;2023-06-24T03:21:45;14.38;;;12.00;;
53875;SDS011;39789;53.216;5.624;2023-06-24T03:24:10;14.23;;;11.82;;
53875;SDS011;39789;53.216;5.624;2023-06-24T03:26:37;17.25;;;12.13;;
53875;SDS011;39789;53.216;5.624;2023-06-24T03:29:03;18.65;;;13.60;;
53875;SDS011;39789;53.216;5.624;2023-06-24T03:31:29;17.38;;;13.75;;
53875;SDS011;39789;53.216;5.624;2023-06-24T03:33:55;17.17;;;13.70;;
53875;SDS011;39789;53.216;5.624;2023-06-24T03:36:20;21.55;;;12.90;;
53875;SDS011;39789;53.216;5.624;2023-06-24T03:38:46;14.52;;;12.70;;
53875;SDS011;39789;53.216;5.624;2023-06-24T03:41:12;18.55;;;12.98;;
53875;SDS011;39789;53.216;5.624;2023-06-24T03:43:37;17.20;;;12.05;;
53875;SDS011;39789;53.216;5.624;2023-06-24T03:46:04;17.35;;;13.18;;
53875;SDS011;39789;53.216;5.624;2023-06-24T03:48:29;14.80;;;12.43;;
53875;SDS011;39789;53.216;5.624;2023-06-24T03:50:55;16.15;;;13.85;;
53875;SDS011;39789;53.216;5.624;2023-06-24T03:53:20;21.15;;;14.18;;
53875;SDS011;39789;53.216;5.624;2023-06-24T03:55:46;19.27;;;13.95;;
53875;SDS011;39789;53.216;5.624;2023-06-24T03:58:12;18.67;;;13.38;;
53875;SDS011;39789;53.216;5.624;2023-06-24T04:00:38;20.48;;;13.35;;
53875;SDS011;39789;53.216;5.624;2023-06-24T04:03:05;17.42;;;12.88;;
53875;SDS011;39789;53.216;5.624;2023-06-24T04:05:34;19.33;;;14.23;;
53875;SDS011;39789;53.216;5.624;2023-06-24T04:07:59;16.15;;;13.48;;
53875;SDS011;39789;53.216;5.624;2023-06-24T04:10:25;18.10;;;13.85;;
53875;SDS011;39789;53.216;5.624;2023-06-24T04:12:50;17.85;;;13.80;;
53875;SDS011;39789;53.216;5.624;2023-06-24T04:15:16;17.08;;;13.90;;
53875;SDS011;39789;53.216;5.624;2023-06-24T04:17:42;21.27;;;13.77;;
53875;SDS011;39789;53.216;5.624;2023-06-24T04:20:08;25.67;;;13.15;;
53875;SDS011;39789;53.216;5.624;2023-06-24T04:22:36;17.38;;;13.35;;
53875;SDS011;39789;53.216;5.624;2023-06-24T04:25:03;16.00;;;12.82;;
53875;SDS011;39789;53.216;5.624;2023-06-24T04:27:30;18.65;;;14.00;;
53875;SDS011;39789;53.216;5.624;2023-06-24T04:29:57;24.63;;;14.43;;
53875;SDS011;39789;53.216;5.624;2023-06-24T04:32:22;18.33;;;14.07;;
53875;SDS011;39789;53.216;5.624;2023-06-24T04:34:48;17.70;;;13.63;;
53875;SDS011;39789;53.216;5.624;2023-06-24T04:37:13;18.17;;;13.20;;
53875;SDS011;39789;53.216;5.624;2023-06-24T04:39:39;16.95;;;13.30;;
53875;SDS011;39789;53.216;5.624;2023-06-24T04:42:05;14.85;;;12.77;;
53875;SDS011;39789;53.216;5.624;2023-06-24T04:44:30;19.10;;;13.13;;
53875;SDS011;39789;53.216;5.624;2023-06-24T04:46:56;19.52;;;13.70;;
53875;SDS011;39789;53.216;5.624;2023-06-24T04:49:22;14.95;;;12.43;;
53875;SDS011;39789;53.216;5.624;2023-06-24T04:51:47;13.70;;;11.50;;
53875;SDS011;39789;53.216;5.624;2023-06-24T04:54:13;15.98;;;12.00;;
53875;SDS011;39789;53.216;5.624;2023-06-24T04:56:39;15.57;;;11.35;;
53875;SDS011;39789;53.216;5.624;2023-06-24T04:59:05;14.10;;;11.43;;
53875;SDS011;39789;53.216;5.624;2023-06-24T05:01:30;14.07;;;12.00;;
53875;SDS011;39789;53.216;5.624;2023-06-24T05:03:56;18.48;;;12.60;;
53875;SDS011;39789;53.216;5.624;2023-06-24T05:06:22;12.85;;;11.05;;
53875;SDS011;39789;53.216;5.624;2023-06-24T05:08:48;14.18;;;11.35;;
53875;SDS011;39789;53.216;5.624;2023-06-24T05:11:13;13.30;;;11.75;;
53875;SDS011;39789;53.216;5.624;2023-06-24T05:13:39;15.73;;;12.25;;
53875;SDS011;39789;53.216;5.624;2023-06-24T05:16:05;18.30;;;12.38;;
53875;SDS011;39789;53.216;5.624;2023-06-24T05:18:30;14.30;;;11.60;;
53875;SDS011;39789;53.216;5.624;2023-06-24T05:20:56;15.82;;;12.13;;
53875;SDS011;39789;53.216;5.624;2023-06-24T05:23:22;15.38;;;12.07;;
53875;SDS011;39789;53.216;5.624;2023-06-24T05:25:47;16.42;;;11.23;;
53875;SDS011;39789;53.216;5.624;2023-06-24T05:28:13;15.18;;;11.13;;
53875;SDS011;39789;53.216;5.624;2023-06-24T05:30:39;15.48;;;12.07;;
53875;SDS011;39789;53.216;5.624;2023-06-24T05:33:05;17.80;;;12.63;;
53875;SDS011;39789;53.216;5.624;2023-06-24T05:35:31;14.10;;;11.68;;
53875;SDS011;39789;53.216;5.624;2023-06-24T05:37:57;15.40;;;11.80;;
53875;SDS011;39789;53.216;5.624;2023-06-24T05:40:22;15.20;;;11.98;;
53875;SDS011;39789;53.216;5.624;2023-06-24T05:42:48;14.23;;;11.90;;
53875;SDS011;39789;53.216;5.624;2023-06-24T05:45:16;24.38;;;12.85;;
53875;SDS011;39789;53.216;5.624;2023-06-24T05:47:42;16.90;;;11.73;;
53875;SDS011;39789;53.216;5.624;2023-06-24T05:50:08;13.70;;;10.93;;
53875;SDS011;39789;53.216;5.624;2023-06-24T05:52:34;17.80;;;12.07;;
53875;SDS011;39789;53.216;5.624;2023-06-24T05:54:59;11.98;;;10.65;;
53875;SDS011;39789;53.216;5.624;2023-06-24T05:57:25;17.88;;;11.13;;
53875;SDS011;39789;53.216;5.624;2023-06-24T05:59:50;12.70;;;11.32;;
53875;SDS011;39789;53.216;5.624;2023-06-24T06:02:16;13.65;;;11.13;;
53875;SDS011;39789;53.216;5.624;2023-06-24T06:04:42;15.00;;;11.32;;
53875;SDS011;39789;53.216;5.624;2023-06-24T06:07:07;15.52;;;10.85;;
53875;SDS011;39789;53.216;5.624;2023-06-24T06:09:33;13.85;;;10.93;;
53875;SDS011;39789;53.216;5.624;2023-06-24T06:11:59;13.55;;;9.75;;
53875;SDS011;39789;53.216;5.624;2023-06-24T06:14:24;12.23;;;9.68;;
53875;SDS011;39789;53.216;5.624;2023-06-24T06:16:50;13.25;;;9.73;;
53875;SDS011;39789;53.216;5.624;2023-06-24T06:19:16;11.93;;;9.52;;
53875;SDS011;39789;53.216;5.624;2023-06-24T06:21:41;12.82;;;10.13;;
53875;SDS011;39789;53.216;5.624;2023-06-24T06:24:07;12.32;;;9.65;;
53875;SDS011;39789;53.216;5.624;2023-06-24T06:26:33;13.75;;;9.50;;
53875;SDS011;39789;53.216;5.624;2023-06-24T06:28:58;27.02;;;9.40;;
53875;SDS011;39789;53.216;5.624;2023-06-24T06:31:24;15.95;;;9.15;;
53875;SDS011;39789;53.216;5.624;2023-06-24T06:33:51;13.10;;;9.65;;
53875;SDS011;39789;53.216;5.624;2023-06-24T06:36:17;11.05;;;8.00;;
53875;SDS011;39789;53.216;5.624;2023-06-24T06:38:45;9.77;;;7.93;;
53875;SDS011;39789;53.216;5.624;2023-06-24T06:41:11;11.05;;;8.07;;
53875;SDS011;39789;53.216;5.624;2023-06-24T06:43:37;10.57;;;8.00;;
53875;SDS011;39789;53.216;5.624;2023-06-24T06:46:08;9.95;;;7.15;;
53875;SDS011;39789;53.216;5.624;2023-06-24T06:48:34;8.93;;;7.18;;
53875;SDS011;39789;53.216;5.624;2023-06-24T06:50:59;11.68;;;6.70;;
53875;SDS011;39789;53.216;5.624;2023-06-24T06:53:26;11.80;;;7.80;;
53875;SDS011;39789;53.216;5.624;2023-06-24T06:55:52;9.73;;;7.05;;
53875;SDS011;39789;53.216;5.624;2023-06-24T06:58:23;11.30;;;7.28;;
53875;SDS011;39789;53.216;5.624;2023-06-24T07:00:49;10.23;;;6.65;;
53875;SDS011;39789;53.216;5.624;2023-06-24T07:03:15;8.70;;;7.07;;
53875;SDS011;39789;53.216;5.624;2023-06-24T07:05:41;10.55;;;6.82;;
53875;SDS011;39789;53.216;5.624;2023-06-24T07:08:06;6.97;;;5.90;;
53875;SDS011;39789;53.216;5.624;2023-06-24T07:10:33;12.48;;;6.75;;
53875;SDS011;39789;53.216;5.624;2023-06-24T07:12:59;9.68;;;6.63;;
53875;SDS011;39789;53.216;5.624;2023-06-24T07:15:25;8.52;;;6.65;;
53875;SDS011;39789;53.216;5.624;2023-06-24T07:17:52;8.80;;;5.65;;
53875;SDS011;39789;53.216;5.624;2023-06-24T07:20:18;7.85;;;5.68;;
53875;SDS011;39789;53.216;5.624;2023-06-24T07:22:45;6.40;;;5.28;;
53875;SDS011;39789;53.216;5.624;2023-06-24T07:25:11;7.43;;;6.05;;
53875;SDS011;39789;53.216;5.624;2023-06-24T07:27:36;9.10;;;5.80;;
53875;SDS011;39789;53.216;5.624;2023-06-24T07:30:03;11.23;;;5.70;;
53875;SDS011;39789;53.216;5.624;2023-06-24T07:32:30;7.88;;;5.15;;
53875;SDS011;39789;53.216;5.624;2023-06-24T07:34:55;8.68;;;6.20;;
53875;SDS011;39789;53.216;5.624;2023-06-24T07:37:22;10.25;;;5.60;;
53875;SDS011;39789;53.216;5.624;2023-06-24T07:39:47;10.75;;;6.25;;
53875;SDS011;39789;53.216;5.624;2023-06-24T07:42:13;9.85;;;6.15;;
53875;SDS011;39789;53.216;5.624;2023-06-24T07:44:47;11.80;;;6.32;;
53875;SDS011;39789;53.216;5.624;2023-06-24T07:47:13;9.73;;;6.05;;
53875;SDS011;39789;53.216;5.624;2023-06-24T07:49:39;6.28;;;5.50;;
53875;SDS011;39789;53.216;5.624;2023-06-24T07:52:06;6.82;;;5.93;;
53875;SDS011;39789;53.216;5.624;2023-06-24T07:54:32;14.38;;;7.00;;
53875;SDS011;39789;53.216;5.624;2023-06-24T07:56:58;9.38;;;6.95;;
53875;SDS011;39789;53.216;5.624;2023-06-24T07:59:24;8.85;;;6.43;;
53875;SDS011;39789;53.216;5.624;2023-06-24T08:01:50;8.63;;;5.78;;
53875;SDS011;39789;53.216;5.624;2023-06-24T08:04:16;7.57;;;5.78;;
53875;SDS011;39789;53.216;5.624;2023-06-24T08:06:41;9.35;;;6.30;;
53875;SDS011;39789;53.216;5.624;2023-06-24T08:09:07;10.50;;;5.90;;
53875;SDS011;39789;53.216;5.624;2023-06-24T08:11:33;13.30;;;6.55;;
53875;SDS011;39789;53.216;5.624;2023-06-24T08:13:58;11.10;;;6.55;;
53875;SDS011;39789;53.216;5.624;2023-06-24T08:16:24;8.45;;;6.10;;
53875;SDS011;39789;53.216;5.624;2023-06-24T08:18:50;8.80;;;6.32;;
53875;SDS011;39789;53.216;5.624;2023-06-24T08:21:15;9.90;;;6.97;;
53875;SDS011;39789;53.216;5.624;2023-06-24T08:23:41;9.90;;;6.30;;
53875;SDS011;39789;53.216;5.624;2023-06-24T08:26:07;9.75;;;6.43;;
53875;SDS011;39789;53.216;5.624;2023-06-24T08:28:33;11.23;;;6.43;;
53875;SDS011;39789;53.216;5.624;2023-06-24T08:30:58;12.80;;;6.10;;
53875;SDS011;39789;53.216;5.624;2023-06-24T08:33:24;11.98;;;6.70;;
53875;SDS011;39789;53.216;5.624;2023-06-24T08:35:49;14.13;;;7.00;;
53875;SDS011;39789;53.216;5.624;2023-06-24T08:38:15;8.80;;;5.45;;
53875;SDS011;39789;53.216;5.624;2023-06-24T08:40:41;9.43;;;6.28;;
53875;SDS011;39789;53.216;5.624;2023-06-24T08:43:08;11.63;;;6.55;;
53875;SDS011;39789;53.216;5.624;2023-06-24T08:45:34;9.75;;;5.80;;
53875;SDS011;39789;53.216;5.624;2023-06-24T08:48:00;8.38;;;6.15;;
53875;SDS011;39789;53.216;5.624;2023-06-24T08:50:27;9.57;;;6.32;;
53875;SDS011;39789;53.216;5.624;2023-06-24T08:53:02;8.35;;;6.13;;
53875;SDS011;39789;53.216;5.624;2023-06-24T08:55:30;10.52;;;6.70;;
53875;SDS011;39789;53.216;5.624;2023-06-24T08:58:01;9.07;;;6.10;;
53875;SDS011;39789;53.216;5.624;2023-06-24T09:00:27;8.10;;;5.95;;
53875;SDS011;39789;53.216;5.624;2023-06-24T09:02:53;9.20;;;5.90;;
53875;SDS011;39789;53.216;5.624;2023-06-24T09:05:19;9.15;;;5.65;;
53875;SDS011;39789;53.216;5.624;2023-06-24T09:07:44;9.52;;;6.20;;
53875;SDS011;39789;53.216;5.624;2023-06-24T09:10:10;8.30;;;6.07;;
53875;SDS011;39789;53.216;5.624;2023-06-24T09:12:54;11.60;;;6.00;;
53875;SDS011;39789;53.216;5.624;2023-06-24T09:15:20;11.50;;;5.88;;
53875;SDS011;39789;53.216;5.624;2023-06-24T09:17:45;11.13;;;7.95;;
53875;SDS011;39789;53.216;5.624;2023-06-24T09:20:11;11.02;;;7.13;;
53875;SDS011;39789;53.216;5.624;2023-06-24T09:22:39;9.95;;;6.78;;
53875;SDS011;39789;53.216;5.624;2023-06-24T09:25:06;11.70;;;7.10;;
53875;SDS011;39789;53.216;5.624;2023-06-24T09:27:32;9.18;;;6.70;;
53875;SDS011;39789;53.216;5.624;2023-06-24T09:29:58;11.75;;;7.78;;
53875;SDS011;39789;53.216;5.624;2023-06-24T09:32:30;10.38;;;7.70;;
53875;SDS011;39789;53.216;5.624;2023-06-24T09:34:56;10.15;;;7.30;;
53875;SDS011;39789;53.216;5.624;2023-06-24T09:37:27;12.10;;;7.80;;
53875;SDS011;39789;53.216;5.624;2023-06-24T09:39:56;12.77;;;7.45;;
53875;SDS011;39789;53.216;5.624;2023-06-24T09:42:21;13.32;;;7.00;;
53875;SDS011;39789;53.216;5.624;2023-06-24T09:44:52;9.60;;;6.40;;
53875;SDS011;39789;53.216;5.624;2023-06-24T09:47:19;13.88;;;7.15;;
53875;SDS011;39789;53.216;5.624;2023-06-24T09:49:45;12.35;;;7.30;;
53875;SDS011;39789;53.216;5.624;2023-06-24T09:52:10;12.70;;;6.60;;
53875;SDS011;39789;53.216;5.624;2023-06-24T09:54:41;13.60;;;6.63;;
53875;SDS011;39789;53.216;5.624;2023-06-24T09:57:08;9.32;;;6.38;;
53875;SDS011;39789;53.216;5.624;2023-06-24T09:59:35;11.70;;;6.82;;
53875;SDS011;39789;53.216;5.624;2023-06-24T10:02:04;10.18;;;6.60;;
53875;SDS011;39789;53.216;5.624;2023-06-24T10:04:36;6.60;;;5.63;;
53875;SDS011;39789;53.216;5.624;2023-06-24T10:07:01;8.30;;;6.47;;
53875;SDS011;39789;53.216;5.624;2023-06-24T10:09:30;7.47;;;5.82;;
53875;SDS011;39789;53.216;5.624;2023-06-24T10:11:56;7.97;;;5.72;;
53875;SDS011;39789;53.216;5.624;2023-06-24T10:14:21;11.65;;;5.78;;
53875;SDS011;39789;53.216;5.624;2023-06-24T10:16:47;8.13;;;6.20;;
53875;SDS011;39789;53.216;5.624;2023-06-24T10:21:57;10.45;;;6.55;;
53875;SDS011;39789;53.216;5.624;2023-06-24T10:24:30;9.65;;;5.63;;
53875;SDS011;39789;53.216;5.624;2023-06-24T10:27:16;9.15;;;6.32;;
53875;SDS011;39789;53.216;5.624;2023-06-24T10:29:46;12.30;;;7.03;;
53875;SDS011;39789;53.216;5.624;2023-06-24T10:32:13;9.73;;;6.72;;
53875;SDS011;39789;53.216;5.624;2023-06-24T10:37:10;11.55;;;7.80;;
53875;SDS011;39789;53.216;5.624;2023-06-24T10:44:49;10.73;;;7.25;;
53875;SDS011;39789;53.216;5.624;2023-06-24T10:47:16;13.40;;;7.47;;
53875;SDS011;39789;53.216;5.624;2023-06-24T10:49:42;15.15;;;7.95;;
53875;SDS011;39789;53.216;5.624;2023-06-24T10:52:08;12.23;;;9.02;;
53875;SDS011;39789;53.216;5.624;2023-06-24T10:54:35;10.85;;;7.88;;
53875;SDS011;39789;53.216;5.624;2023-06-24T10:57:03;11.32;;;6.88;;
53875;SDS011;39789;53.216;5.624;2023-06-24T10:59:38;10.77;;;7.75;;
53875;SDS011;39789;53.216;5.624;2023-06-24T11:02:05;10.38;;;6.80;;
53875;SDS011;39789;53.216;5.624;2023-06-24T11:04:32;9.68;;;6.07;;
53875;SDS011;39789;53.216;5.624;2023-06-24T11:07:01;10.40;;;6.07;;
53875;SDS011;39789;53.216;5.624;2023-06-24T11:09:30;7.22;;;5.65;;
53875;SDS011;39789;53.216;5.624;2023-06-24T11:11:56;7.88;;;5.82;;
53875;SDS011;39789;53.216;5.624;2023-06-24T11:14:21;6.95;;;5.07;;
53875;SDS011;39789;53.216;5.624;2023-06-24T11:16:47;12.30;;;6.28;;
53875;SDS011;39789;53.216;5.624;2023-06-24T11:19:13;7.32;;;5.75;;
53875;SDS011;39789;53.216;5.624;2023-06-24T11:21:39;6.68;;;4.57;;
53875;SDS011;39789;53.216;5.624;2023-06-24T11:24:05;5.35;;;4.40;;
53875;SDS011;39789;53.216;5.624;2023-06-24T11:26:32;6.53;;;4.85;;
53875;SDS011;39789;53.216;5.624;2023-06-24T11:28:58;8.07;;;5.18;;
53875;SDS011;39789;53.216;5.624;2023-06-24T11:31:24;10.93;;;5.38;;
53875;SDS011;39789;53.216;5.624;2023-06-24T11:33:50;8.80;;;5.10;;
53875;SDS011;39789;53.216;5.624;2023-06-24T11:36:19;9.70;;;5.55;;
53875;SDS011;39789;53.216;5.624;2023-06-24T11:38:46;8.38;;;5.15;;
53875;SDS011;39789;53.216;5.624;2023-06-24T11:41:12;7.43;;;5.43;;
53875;SDS011;39789;53.216;5.624;2023-06-24T11:43:38;10.00;;;6.47;;
53875;SDS011;39789;53.216;5.624;2023-06-24T11:48:48;11.30;;;6.97;;
53875;SDS011;39789;53.216;5.624;2023-06-24T11:51:14;8.65;;;5.90;;
53875;SDS011;39789;53.216;5.624;2023-06-24T11:53:45;10.75;;;5.90;;
53875;SDS011;39789;53.216;5.624;2023-06-24T11:56:12;8.52;;;5.85;;
53875;SDS011;39789;53.216;5.624;2023-06-24T11:58:38;6.97;;;4.63;;
53875;SDS011;39789;53.216;5.624;2023-06-24T12:01:06;6.43;;;5.60;;
53875;SDS011;39789;53.216;5.624;2023-06-24T12:03:32;9.43;;;5.90;;
53875;SDS011;39789;53.216;5.624;2023-06-24T12:05:59;10.02;;;5.35;;
53875;SDS011;39789;53.216;5.624;2023-06-24T12:08:24;8.02;;;6.07;;
53875;SDS011;39789;53.216;5.624;2023-06-24T12:10:51;11.52;;;5.75;;
53875;SDS011;39789;53.216;5.624;2023-06-24T12:13:16;7.00;;;5.28;;
53875;SDS011;39789;53.216;5.624;2023-06-24T12:15:42;6.75;;;4.60;;
53875;SDS011;39789;53.216;5.624;2023-06-24T12:18:08;7.95;;;4.80;;
53875;SDS011;39789;53.216;5.624;2023-06-24T12:20:34;7.05;;;4.97;;
53875;SDS011;39789;53.216;5.624;2023-06-24T12:23:01;8.45;;;4.80;;
53875;SDS011;39789;53.216;5.624;2023-06-24T12:25:31;5.15;;;4.05;;
53875;SDS011;39789;53.216;5.624;2023-06-24T12:27:56;7.50;;;5.03;;
53875;SDS011;39789;53.216;5.624;2023-06-24T12:30:24;10.98;;;5.18;;
53875;SDS011;39789;53.216;5.624;2023-06-24T12:32:50;10.25;;;5.32;;
53875;SDS011;39789;53.216;5.624;2023-06-24T12:35:16;6.60;;;4.68;;
53875;SDS011;39789;53.216;5.624;2023-06-24T12:37:41;9.27;;;5.40;;
53875;SDS011;39789;53.216;5.624;2023-06-24T12:40:10;6.78;;;4.93;;
53875;SDS011;39789;53.216;5.624;2023-06-24T12:42:36;7.13;;;4.28;;
53875;SDS011;39789;53.216;5.624;2023-06-24T12:45:02;7.50;;;5.15;;
53875;SDS011;39789;53.216;5.624;2023-06-24T12:47:27;8.15;;;5.05;;
53875;SDS011;39789;53.216;5.624;2023-06-24T12:49:53;7.32;;;4.90;;
53875;SDS011;39789;53.216;5.624;2023-06-24T12:52:19;6.60;;;4.75;;
53875;SDS011;39789;53.216;5.624;2023-06-24T12:54:45;6.03;;;4.40;;
53875;SDS011;39789;53.216;5.624;2023-06-24T12:57:14;6.05;;;4.65;;
53875;SDS011;39789;53.216;5.624;2023-06-24T12:59:40;7.13;;;4.53;;
53875;SDS011;39789;53.216;5.624;2023-06-24T13:02:06;5.35;;;4.30;;
53875;SDS011;39789;53.216;5.624;2023-06-24T13:04:31;6.68;;;4.10;;
53875;SDS011;39789;53.216;5.624;2023-06-24T13:06:57;6.25;;;4.40;;
53875;SDS011;39789;53.216;5.624;2023-06-24T13:09:23;5.68;;;4.03;;
53875;SDS011;39789;53.216;5.624;2023-06-24T13:11:48;5.40;;;3.47;;
53875;SDS011;39789;53.216;5.624;2023-06-24T13:14:14;6.32;;;3.78;;
53875;SDS011;39789;53.216;5.624;2023-06-24T13:16:40;6.97;;;3.67;;
53875;SDS011;39789;53.216;5.624;2023-06-24T13:19:06;4.68;;;3.58;;
53875;SDS011;39789;53.216;5.624;2023-06-24T13:21:31;5.18;;;3.95;;
53875;SDS011;39789;53.216;5.624;2023-06-24T13:23:57;6.50;;;4.00;;
53875;SDS011;39789;53.216;5.624;2023-06-24T13:26:23;6.20;;;4.10;;
53875;SDS011;39789;53.216;5.624;2023-06-24T13:28:49;6.15;;;3.83;;
53875;SDS011;39789;53.216;5.624;2023-06-24T13:31:15;5.32;;;4.30;;
53875;SDS011;39789;53.216;5.624;2023-06-24T13:33:41;6.18;;;5.22;;
53875;SDS011;39789;53.216;5.624;2023-06-24T13:36:07;7.68;;;4.82;;
53875;SDS011;39789;53.216;5.624;2023-06-24T13:38:38;8.13;;;4.70;;
53875;SDS011;39789;53.216;5.624;2023-06-24T13:41:03;7.57;;;4.43;;
53875;SDS011;39789;53.216;5.624;2023-06-24T13:43:29;7.63;;;4.65;;
53875;SDS011;39789;53.216;5.624;2023-06-24T13:45:57;5.57;;;4.13;;
53875;SDS011;39789;53.216;5.624;2023-06-24T13:48:23;7.97;;;4.20;;
53875;SDS011;39789;53.216;5.624;2023-06-24T13:50:49;6.07;;;3.90;;
53875;SDS011;39789;53.216;5.624;2023-06-24T13:53:14;6.18;;;3.38;;
53875;SDS011;39789;53.216;5.624;2023-06-24T13:55:40;3.97;;;3.50;;
53875;SDS011;39789;53.216;5.624;2023-06-24T13:58:06;5.78;;;3.72;;
53875;SDS011;39789;53.216;5.624;2023-06-24T14:00:34;5.13;;;4.18;;
53875;SDS011;39789;53.216;5.624;2023-06-24T14:03:00;5.38;;;3.80;;
53875;SDS011;39789;53.216;5.624;2023-06-24T14:05:25;4.97;;;3.42;;
53875;SDS011;39789;53.216;5.624;2023-06-24T14:07:51;6.35;;;3.72;;
53875;SDS011;39789;53.216;5.624;2023-06-24T14:10:17;5.40;;;3.78;;
53875;SDS011;39789;53.216;5.624;2023-06-24T14:12:42;6.72;;;3.63;;
53875;SDS011;39789;53.216;5.624;2023-06-24T14:15:09;5.82;;;3.80;;
53875;SDS011;39789;53.216;5.624;2023-06-24T14:17:34;6.15;;;3.90;;
53875;SDS011;39789;53.216;5.624;2023-06-24T14:20:00;9.82;;;4.00;;
53875;SDS011;39789;53.216;5.624;2023-06-24T14:22:26;5.95;;;4.20;;
53875;SDS011;39789;53.216;5.624;2023-06-24T14:24:52;6.32;;;4.40;;
53875;SDS011;39789;53.216;5.624;2023-06-24T14:27:17;7.10;;;3.97;;
53875;SDS011;39789;53.216;5.624;2023-06-24T14:29:43;7.00;;;4.65;;
53875;SDS011;39789;53.216;5.624;2023-06-24T14:32:09;6.15;;;4.20;;
53875;SDS011;39789;53.216;5.624;2023-06-24T14:34:34;6.70;;;4.25;;
53875;SDS011;39789;53.216;5.624;2023-06-24T14:37:03;7.78;;;4.10;;
53875;SDS011;39789;53.216;5.624;2023-06-24T14:39:29;5.05;;;4.38;;
53875;SDS011;39789;53.216;5.624;2023-06-24T14:41:55;6.30;;;4.15;;
53875;SDS011;39789;53.216;5.624;2023-06-24T14:44:20;6.85;;;4.10;;
53875;SDS011;39789;53.216;5.624;2023-06-24T14:46:49;6.18;;;3.83;;
53875;SDS011;39789;53.216;5.624;2023-06-24T14:49:14;5.78;;;3.88;;
53875;SDS011;39789;53.216;5.624;2023-06-24T14:51:42;5.47;;;3.90;;